createdAt,value
2019-03-13T00:02:03.199Z,20.73
2019-03-13T00:04:34.079Z,20.30
2019-03-13T00:07:04.516Z,20.53
2019-03-13T00:09:34.874Z,20.30
2019-03-13T00:12:05.137Z,19.80
2019-03-13T00:14:36.520Z,20.30
2019-03-13T00:17:07.871Z,21.20
2019-03-13T00:19:38.159Z,21.10
2019-03-13T00:22:11.577Z,20.87
2019-03-13T00:24:45.038Z,21.57
2019-03-13T00:27:15.327Z,19.93
2019-03-13T00:29:45.641Z,20.83
2019-03-13T00:32:15.913Z,20.60
2019-03-13T00:34:46.226Z,22.33
2019-03-13T00:37:16.483Z,21.90
2019-03-13T00:39:46.965Z,21.53
2019-03-13T00:42:17.205Z,23.00
2019-03-13T00:44:48.308Z,23.50
2019-03-13T00:47:18.591Z,23.33
2019-03-13T00:49:49.190Z,23.53
2019-03-13T00:52:19.524Z,23.37
2019-03-13T00:54:54.522Z,23.20
2019-03-13T00:57:24.796Z,22.47
2019-03-13T00:59:55.106Z,23.43
2019-03-13T01:02:37.806Z,23.13
2019-03-13T01:05:25.923Z,23.83
2019-03-13T01:07:56.188Z,25.90
2019-03-13T01:10:26.500Z,24.67
2019-03-13T01:12:56.820Z,24.33
2019-03-13T01:15:27.536Z,24.87
2019-03-13T01:17:57.867Z,24.93
2019-03-13T01:20:28.600Z,25.23
2019-03-13T01:22:59.633Z,24.03
2019-03-13T01:25:30.100Z,25.23
2019-03-13T01:28:00.388Z,27.63
2019-03-13T01:30:36.996Z,27.13
2019-03-13T01:33:10.764Z,26.83
2019-03-13T01:35:47.954Z,26.50
2019-03-13T01:38:18.232Z,28.07
2019-03-13T01:40:48.631Z,28.13
2019-03-13T01:43:18.948Z,26.80
2019-03-13T01:45:49.220Z,28.13
2019-03-13T01:48:19.536Z,28.20
2019-03-13T01:50:49.862Z,28.43
2019-03-13T01:53:20.111Z,28.53
2019-03-13T01:55:50.749Z,28.03
2019-03-13T01:58:21.022Z,29.00
2019-03-13T02:00:51.516Z,29.20
2019-03-13T02:03:21.822Z,30.20
2019-03-13T02:05:52.098Z,28.63
2019-03-13T02:08:22.473Z,29.07
2019-03-13T02:10:52.808Z,29.17
2019-03-13T02:13:23.276Z,29.43
2019-03-13T02:15:53.566Z,28.50
2019-03-13T02:18:24.285Z,29.00
2019-03-13T02:20:54.559Z,29.70
2019-03-13T02:23:25.484Z,29.20
2019-03-13T02:25:55.759Z,27.93
2019-03-13T02:28:26.107Z,28.83
2019-03-13T02:30:56.384Z,28.63
2019-03-13T02:33:26.766Z,28.87
2019-03-13T02:35:57.284Z,29.27
2019-03-13T02:38:27.604Z,28.27
2019-03-13T02:40:57.883Z,28.83
2019-03-13T02:43:28.202Z,28.87
2019-03-13T02:45:58.476Z,28.73
2019-03-13T02:48:28.800Z,27.90
2019-03-13T02:50:59.086Z,27.93
2019-03-13T02:53:29.400Z,27.67
2019-03-13T02:55:59.691Z,27.77
2019-03-13T02:58:30.299Z,27.13
2019-03-13T03:01:31.575Z,28.63
2019-03-13T03:04:03.199Z,27.70
2019-03-13T03:06:33.510Z,26.07
2019-03-13T03:09:05.901Z,28.77
2019-03-13T03:11:38.049Z,27.73
2019-03-13T03:14:08.803Z,27.87
2019-03-13T03:16:40.285Z,28.07
2019-03-13T03:19:11.076Z,27.70
2019-03-13T03:21:41.367Z,26.13
2019-03-13T03:24:12.632Z,26.93
2019-03-13T03:26:42.900Z,26.80
2019-03-13T03:29:13.479Z,26.73
2019-03-13T03:31:43.807Z,26.80
2019-03-13T03:34:14.082Z,26.40
2019-03-13T03:36:44.354Z,25.80
2019-03-13T03:39:14.632Z,25.60
2019-03-13T03:41:45.137Z,25.00
2019-03-13T03:44:15.446Z,26.40
2019-03-13T03:46:46.251Z,26.10
2019-03-13T03:49:16.791Z,24.33
2019-03-13T03:51:47.252Z,23.90
2019-03-13T03:54:17.609Z,25.10
2019-03-13T03:56:47.884Z,25.57
2019-03-13T03:59:18.208Z,22.53
2019-03-13T04:01:48.446Z,24.07
2019-03-13T04:04:18.741Z,23.43
2019-03-13T04:06:48.992Z,22.60
2019-03-13T04:09:19.342Z,22.37
2019-03-13T04:11:49.573Z,22.47
2019-03-13T04:14:19.869Z,22.70
2019-03-13T04:16:50.125Z,21.50
2019-03-13T04:19:20.683Z,21.03
2019-03-13T04:21:50.944Z,20.53
2019-03-13T04:24:22.041Z,21.30
2019-03-13T04:26:52.300Z,19.90
2019-03-13T04:29:22.570Z,21.37
2019-03-13T04:31:52.990Z,21.13
2019-03-13T04:34:23.456Z,20.23
2019-03-13T04:36:53.695Z,19.50
2019-03-13T04:39:23.969Z,20.07
2019-03-13T04:41:54.215Z,19.93
2019-03-13T04:44:24.556Z,18.33
2019-03-13T04:46:54.869Z,18.87
2019-03-13T04:49:25.207Z,18.10
2019-03-13T04:51:55.345Z,17.53
2019-03-13T04:54:25.753Z,18.07
2019-03-13T04:56:55.995Z,18.27
2019-03-13T04:59:26.224Z,16.47
2019-03-13T05:01:56.406Z,16.97
2019-03-13T05:04:27.925Z,16.37
2019-03-13T05:06:58.158Z,16.90
2019-03-13T05:09:39.675Z,15.70
2019-03-13T05:12:09.994Z,16.10
2019-03-13T05:14:40.299Z,15.73
2019-03-13T05:17:10.690Z,16.50
2019-03-13T05:19:41.889Z,15.87
2019-03-13T05:22:12.117Z,16.20
2019-03-13T05:24:42.355Z,16.17
2019-03-13T05:27:12.599Z,16.90
2019-03-13T05:29:42.888Z,15.97
2019-03-13T05:32:13.143Z,16.87
2019-03-13T05:34:43.431Z,15.40
2019-03-13T05:37:14.033Z,16.23
2019-03-13T05:39:44.307Z,15.63
2019-03-13T05:42:14.606Z,16.33
2019-03-13T05:44:44.851Z,15.73
2019-03-13T05:47:15.154Z,15.17
2019-03-13T05:49:45.432Z,15.73
2019-03-13T05:52:16.571Z,15.43
2019-03-13T05:54:47.333Z,16.10
2019-03-13T05:57:17.771Z,16.50
2019-03-13T05:59:47.988Z,15.60
2019-03-13T06:02:18.253Z,16.90
2019-03-13T06:04:48.555Z,14.80
2019-03-13T06:07:18.818Z,16.23
2019-03-13T06:09:49.496Z,16.67
2019-03-13T06:12:19.733Z,16.70
2019-03-13T06:14:50.242Z,16.07
2019-03-13T06:17:20.435Z,16.70
2019-03-13T06:19:50.819Z,17.20
2019-03-13T06:22:21.054Z,16.50
2019-03-13T06:24:51.420Z,15.20
2019-03-13T06:27:22.374Z,15.90
2019-03-13T06:29:52.558Z,15.60
2019-03-13T06:32:22.860Z,15.13
2019-03-13T06:34:53.142Z,15.77
2019-03-13T06:37:23.527Z,15.33
2019-03-13T06:39:53.815Z,15.97
2019-03-13T06:42:24.416Z,15.70
2019-03-13T06:44:54.695Z,14.53
2019-03-13T06:47:25.308Z,14.47
2019-03-13T06:49:55.668Z,16.20
2019-03-13T06:52:25.974Z,16.13
2019-03-13T06:54:56.250Z,13.97
2019-03-13T06:57:26.548Z,13.77
2019-03-13T07:00:21.979Z,13.87
2019-03-13T07:03:14.247Z,13.43
2019-03-13T07:05:55.321Z,12.20
2019-03-13T07:08:35.994Z,12.80
2019-03-13T07:11:21.881Z,12.47
2019-03-13T07:14:00.944Z,12.03
2019-03-13T07:16:42.938Z,11.70
2019-03-13T07:19:38.387Z,11.97
2019-03-13T07:22:43.140Z,9.90
2019-03-13T07:25:31.087Z,10.57
2019-03-13T07:28:19.712Z,11.53
2019-03-13T07:31:12.242Z,10.40
2019-03-13T07:34:14.632Z,10.93
2019-03-13T07:37:02.434Z,9.87
2019-03-13T07:40:00.748Z,9.47
2019-03-13T07:43:02.283Z,9.17
2019-03-13T07:45:54.524Z,9.80
2019-03-13T07:48:36.051Z,10.10
2019-03-13T07:51:24.157Z,9.47
2019-03-13T07:54:12.350Z,10.90
2019-03-13T07:57:16.829Z,9.40
2019-03-13T08:00:12.250Z,9.40
2019-03-13T08:03:13.528Z,10.50
2019-03-13T08:06:08.839Z,9.80
2019-03-13T08:08:58.239Z,10.00
2019-03-13T08:11:46.444Z,9.97
2019-03-13T08:14:30.908Z,10.10
2019-03-13T08:17:23.095Z,9.67
2019-03-13T08:20:09.003Z,10.30
2019-03-13T08:23:05.752Z,10.30
2019-03-13T08:25:41.775Z,9.70
2019-03-13T08:28:46.537Z,9.97
2019-03-13T08:31:35.885Z,9.73
2019-03-13T08:34:23.043Z,10.10
2019-03-13T08:37:19.461Z,9.20
2019-03-13T08:40:17.885Z,10.30
2019-03-13T08:43:06.057Z,10.67
2019-03-13T08:45:44.437Z,10.40
2019-03-13T08:48:43.121Z,9.83
2019-03-13T08:51:26.675Z,9.97
2019-03-13T08:54:03.111Z,10.30
2019-03-13T08:56:47.946Z,10.63
2019-03-13T08:59:37.184Z,10.03
2019-03-13T09:02:17.727Z,10.23
2019-03-13T09:05:16.031Z,9.57
2019-03-13T09:08:08.748Z,9.90
2019-03-13T09:10:57.943Z,9.63
2019-03-13T09:13:50.212Z,9.90
2019-03-13T09:16:45.279Z,9.90
2019-03-13T09:19:34.639Z,10.00
2019-03-13T09:22:30.200Z,9.80
2019-03-13T09:25:18.461Z,9.43
2019-03-13T09:28:10.741Z,9.53
2019-03-13T09:30:59.147Z,10.23
2019-03-13T09:33:36.975Z,10.60
2019-03-13T09:36:24.817Z,10.13
2019-03-13T09:39:18.759Z,9.87
2019-03-13T09:42:17.051Z,10.27
2019-03-13T09:44:58.277Z,10.63
2019-03-13T09:47:46.195Z,10.63
2019-03-13T09:50:37.425Z,10.90
2019-03-13T09:53:39.061Z,9.93
2019-03-13T09:56:33.545Z,9.70
2019-03-13T09:59:11.297Z,9.03
2019-03-13T10:02:11.717Z,9.10
2019-03-13T10:05:10.067Z,8.80
2019-03-13T10:07:58.386Z,8.80
2019-03-13T10:10:35.692Z,9.13
2019-03-13T10:13:29.780Z,8.97
2019-03-13T10:16:05.033Z,8.87
2019-03-13T10:18:52.744Z,8.83
2019-03-13T10:21:33.811Z,9.27
2019-03-13T10:24:23.042Z,8.67
2019-03-13T10:27:12.628Z,9.40
2019-03-13T10:30:05.111Z,9.10
2019-03-13T10:32:49.570Z,9.10
2019-03-13T10:35:38.818Z,8.43
2019-03-13T10:38:30.617Z,9.30
2019-03-13T10:41:22.976Z,9.10
2019-03-13T10:44:22.002Z,9.30
2019-03-13T10:47:12.597Z,9.67
2019-03-13T10:49:58.432Z,9.40
2019-03-13T10:52:46.401Z,10.37
2019-03-13T10:55:35.597Z,9.87
2019-03-13T10:58:30.638Z,10.67
2019-03-13T11:01:11.925Z,8.60
2019-03-13T11:04:00.434Z,9.53
2019-03-13T11:06:55.498Z,9.60
2019-03-13T11:09:43.214Z,9.17
2019-03-13T11:12:27.066Z,9.60
2019-03-13T11:15:11.060Z,9.27
2019-03-13T11:17:52.752Z,10.23
2019-03-13T11:20:54.098Z,10.13
2019-03-13T11:23:46.108Z,10.00
2019-03-13T11:26:34.252Z,10.33
2019-03-13T11:29:39.038Z,10.37
2019-03-13T11:32:31.371Z,10.23
2019-03-13T11:35:23.572Z,10.07
2019-03-13T11:38:15.542Z,10.20
2019-03-13T11:41:03.705Z,10.30
2019-03-13T11:43:48.885Z,10.43
2019-03-13T11:46:25.599Z,10.57
2019-03-13T11:49:08.169Z,10.83
2019-03-13T11:51:52.807Z,10.53
2019-03-13T11:54:38.918Z,10.53
2019-03-13T11:57:37.461Z,11.63
2019-03-13T12:00:31.338Z,11.13
2019-03-13T12:03:18.079Z,11.97
2019-03-13T12:06:14.692Z,12.43
2019-03-13T12:09:16.018Z,12.30
2019-03-13T12:12:06.007Z,11.97
2019-03-13T12:14:45.399Z,13.50
2019-03-13T12:17:23.017Z,12.13
2019-03-13T12:20:01.540Z,11.70
2019-03-13T12:22:58.193Z,12.10
2019-03-13T12:25:39.227Z,11.83
2019-03-13T12:28:18.194Z,11.17
2019-03-13T12:31:19.658Z,11.77
2019-03-13T12:34:04.450Z,11.63
2019-03-13T12:36:53.151Z,11.23
2019-03-13T12:39:33.739Z,11.73
2019-03-13T12:42:23.683Z,11.07
2019-03-13T12:45:15.931Z,11.53
2019-03-13T12:48:16.724Z,11.70
2019-03-13T12:51:11.043Z,10.73
2019-03-13T12:53:50.952Z,11.60
2019-03-13T12:56:29.954Z,10.93
2019-03-13T12:59:33.574Z,10.00
2019-03-13T13:02:17.624Z,10.77
2019-03-13T13:05:05.511Z,9.40
2019-03-13T13:07:53.797Z,8.93
2019-03-13T13:10:40.773Z,8.13
2019-03-13T13:13:22.631Z,8.83
2019-03-13T13:16:30.003Z,9.17
2019-03-13T13:19:00.437Z,9.00
2019-03-13T13:21:30.735Z,8.70
2019-03-13T13:24:00.977Z,8.80
2019-03-13T13:26:31.351Z,8.80
2019-03-13T13:29:01.702Z,8.13
2019-03-13T13:31:32.444Z,8.60
2019-03-13T13:34:02.917Z,7.97
2019-03-13T13:36:33.215Z,7.30
2019-03-13T13:39:04.747Z,8.57
2019-03-13T13:41:36.688Z,7.93
2019-03-13T13:44:07.022Z,7.90
2019-03-13T13:46:39.718Z,7.87
2019-03-13T13:49:10.106Z,8.10
2019-03-13T13:51:40.331Z,7.07
2019-03-13T13:54:10.616Z,7.23
2019-03-13T13:56:41.007Z,7.07
2019-03-13T13:59:11.663Z,7.00
2019-03-13T14:01:42.012Z,6.70
2019-03-13T14:04:13.744Z,6.83
2019-03-13T14:06:43.921Z,6.97
2019-03-13T14:09:14.503Z,5.87
2019-03-13T14:11:44.742Z,5.20
2019-03-13T14:14:15.459Z,4.90
2019-03-13T14:16:45.708Z,4.87
2019-03-13T14:19:16.136Z,4.80
2019-03-13T14:21:46.387Z,4.73
2019-03-13T14:24:17.544Z,4.80
2019-03-13T14:26:47.946Z,4.53
2019-03-13T14:29:18.376Z,4.27
2019-03-13T14:31:48.675Z,4.80
2019-03-13T14:34:19.101Z,4.77
2019-03-13T14:36:49.315Z,4.30
2019-03-13T14:39:19.603Z,4.47
2019-03-13T14:41:49.880Z,4.77
2019-03-13T14:44:23.472Z,4.90
2019-03-13T14:46:53.863Z,4.40
2019-03-13T14:49:24.255Z,5.13
2019-03-13T14:51:54.610Z,5.07
2019-03-13T14:54:24.987Z,4.80
2019-03-13T14:56:55.312Z,4.37
2019-03-13T14:59:28.344Z,4.87
2019-03-13T15:01:58.608Z,4.80
2019-03-13T15:04:28.914Z,4.20
2019-03-13T15:06:59.234Z,4.70
2019-03-13T15:09:29.486Z,4.50
2019-03-13T15:11:59.781Z,4.83
2019-03-13T15:14:29.935Z,5.77
2019-03-13T15:17:00.268Z,5.30
2019-03-13T15:19:30.553Z,5.10
2019-03-13T15:22:00.735Z,5.40
2019-03-13T15:24:31.060Z,5.73
2019-03-13T15:27:02.624Z,6.50
2019-03-13T15:29:34.077Z,6.10
2019-03-13T15:32:04.663Z,6.00
2019-03-13T15:34:34.989Z,5.77
2019-03-13T15:37:05.233Z,6.43
2019-03-13T15:39:39.822Z,6.40
2019-03-13T15:42:10.116Z,5.93
2019-03-13T15:44:40.774Z,5.90
2019-03-13T15:47:11.090Z,6.00
2019-03-13T15:49:41.423Z,6.30
2019-03-13T15:52:12.214Z,6.17
2019-03-13T15:54:42.806Z,6.67
2019-03-13T15:57:13.052Z,7.30
2019-03-13T15:59:46.378Z,7.70
2019-03-13T16:02:16.567Z,7.60
2019-03-13T16:04:47.354Z,7.80
2019-03-13T16:07:17.597Z,7.53
2019-03-13T16:09:48.110Z,7.37
2019-03-13T16:12:18.443Z,7.33
2019-03-13T16:14:48.784Z,6.73
2019-03-13T16:17:19.077Z,7.67
2019-03-13T16:19:49.853Z,6.97
2019-03-13T16:22:22.003Z,6.80
2019-03-13T16:24:52.802Z,7.20
2019-03-13T16:27:23.116Z,7.43
2019-03-13T16:29:53.403Z,7.43
2019-03-13T16:32:23.892Z,8.00
2019-03-13T16:34:54.152Z,8.93
2019-03-13T16:37:24.385Z,8.00
2019-03-13T16:39:54.693Z,8.83
2019-03-13T16:42:25.009Z,8.60
2019-03-13T16:44:55.360Z,9.60
2019-03-13T16:47:25.622Z,10.30
2019-03-13T16:49:55.994Z,9.83
2019-03-13T16:52:26.464Z,10.17
2019-03-13T16:54:58.453Z,9.70
2019-03-13T16:57:28.982Z,9.70
2019-03-13T17:00:00.822Z,10.87
2019-03-13T17:02:33.156Z,11.37
2019-03-13T17:05:03.602Z,10.40
2019-03-13T17:07:34.334Z,10.60
2019-03-13T17:10:05.387Z,11.03
2019-03-13T17:12:35.948Z,11.17
2019-03-13T17:15:08.272Z,12.33
2019-03-13T17:17:39.031Z,13.07
2019-03-13T17:20:12.798Z,13.10
2019-03-13T17:22:43.548Z,12.87
2019-03-13T17:25:15.737Z,14.13
2019-03-13T17:27:46.811Z,13.47
2019-03-13T17:30:21.897Z,13.73
2019-03-13T17:32:52.405Z,13.67
2019-03-13T17:35:22.837Z,14.27
2019-03-13T17:37:53.078Z,14.50
2019-03-13T17:40:24.401Z,14.67
2019-03-13T17:42:55.108Z,14.33
2019-03-13T17:45:25.867Z,14.87
2019-03-13T17:47:57.299Z,15.23
2019-03-13T17:50:27.970Z,15.30
2019-03-13T17:52:58.383Z,15.13
2019-03-13T17:55:28.859Z,15.70
2019-03-13T17:57:59.404Z,14.93
2019-03-13T18:00:34.289Z,16.27
2019-03-13T18:03:05.252Z,16.17
2019-03-13T18:05:35.503Z,16.53
2019-03-13T18:08:06.324Z,16.50
2019-03-13T18:10:38.023Z,15.93
2019-03-13T18:13:08.286Z,16.83
2019-03-13T18:15:38.632Z,17.33
2019-03-13T18:18:09.032Z,17.43
2019-03-13T18:20:39.722Z,18.33
2019-03-13T18:23:10.015Z,18.50
2019-03-13T18:25:40.400Z,19.07
2019-03-13T18:28:10.854Z,18.43
2019-03-13T18:30:41.190Z,17.67
2019-03-13T18:33:11.504Z,20.00
2019-03-13T18:35:41.975Z,19.53
2019-03-13T18:38:12.268Z,21.43
2019-03-13T18:40:42.554Z,20.40
2019-03-13T18:43:12.880Z,19.70
2019-03-13T18:45:43.253Z,20.43
2019-03-13T18:48:13.772Z,19.87
2019-03-13T18:50:44.647Z,19.93
2019-03-13T18:53:14.900Z,21.93
2019-03-13T18:55:45.431Z,20.60
2019-03-13T18:58:15.762Z,21.50
2019-03-13T19:00:47.308Z,21.63
2019-03-13T19:03:17.714Z,20.93
2019-03-13T19:05:48.155Z,21.20
2019-03-13T19:08:18.499Z,22.00
2019-03-13T19:10:49.081Z,21.20
2019-03-13T19:13:19.628Z,20.90
2019-03-13T19:15:51.284Z,21.00
2019-03-13T19:18:21.718Z,21.03
2019-03-13T19:20:53.862Z,21.97
2019-03-13T19:23:23.929Z,22.23
2019-03-13T19:25:54.262Z,22.97
2019-03-13T19:28:24.747Z,23.47
2019-03-13T19:30:55.623Z,22.70
2019-03-13T19:33:25.864Z,22.70
2019-03-13T19:35:56.369Z,23.57
2019-03-13T19:38:26.525Z,24.63
2019-03-13T19:40:56.928Z,23.27
2019-03-13T19:43:27.331Z,22.57
2019-03-13T19:45:57.921Z,23.50
2019-03-13T19:48:28.446Z,22.03
2019-03-13T19:50:58.883Z,21.67
2019-03-13T19:53:29.231Z,21.50
2019-03-13T19:55:59.793Z,21.80
2019-03-13T19:58:30.319Z,22.47
2019-03-13T20:01:00.675Z,22.53
2019-03-13T20:03:32.175Z,23.37
2019-03-13T20:06:02.577Z,22.30
2019-03-13T20:08:34.271Z,22.60
2019-03-13T20:11:05.097Z,23.07
2019-03-13T20:13:36.015Z,23.90
2019-03-13T20:16:07.005Z,21.97
2019-03-13T20:18:38.406Z,22.50
2019-03-13T20:21:09.063Z,21.97
2019-03-13T20:23:39.425Z,21.93
2019-03-13T20:26:10.173Z,21.00
2019-03-13T20:28:40.661Z,22.17
2019-03-13T20:31:12.787Z,23.00
2019-03-13T20:33:43.440Z,21.57
2019-03-13T20:36:15.427Z,22.67
2019-03-13T20:38:47.390Z,22.63
2019-03-13T20:41:18.903Z,22.17
2019-03-13T20:43:49.565Z,21.87
2019-03-13T20:46:20.095Z,21.50
2019-03-13T20:48:50.825Z,22.63
2019-03-13T20:51:22.405Z,22.80
2019-03-13T20:53:53.211Z,22.40
2019-03-13T20:56:28.891Z,22.47
2019-03-13T20:58:59.613Z,23.00
2019-03-13T21:01:31.019Z,22.17
2019-03-13T21:04:01.421Z,22.77
2019-03-13T21:06:32.014Z,23.63
2019-03-13T21:09:02.553Z,23.20
2019-03-13T21:11:34.505Z,22.97
2019-03-13T21:14:04.821Z,24.10
2019-03-13T21:16:35.366Z,24.53
2019-03-13T21:19:05.707Z,24.63
2019-03-13T21:21:36.007Z,22.80
2019-03-13T21:24:06.641Z,23.83
2019-03-13T21:26:36.801Z,23.47
2019-03-13T21:29:07.115Z,24.30
2019-03-13T21:31:37.409Z,23.67
2019-03-13T21:34:07.663Z,25.43
2019-03-13T21:36:38.085Z,24.73
2019-03-13T21:39:08.384Z,24.60
2019-03-13T21:41:40.375Z,25.93
2019-03-13T21:44:11.759Z,25.47
2019-03-13T21:46:42.060Z,25.70
2019-03-13T21:49:12.305Z,25.47
2019-03-13T21:51:42.579Z,24.80
2019-03-13T21:54:13.586Z,26.10
2019-03-13T21:56:44.100Z,25.40
2019-03-13T21:59:14.638Z,25.63
2019-03-13T22:01:44.948Z,26.80
2019-03-13T22:04:24.201Z,26.37
2019-03-13T22:06:48.156Z,26.33
2019-03-13T22:09:19.958Z,27.00
2019-03-13T22:11:50.795Z,26.43
2019-03-13T22:14:21.374Z,26.60
2019-03-13T22:16:51.640Z,27.07
2019-03-13T22:19:22.270Z,27.20
2019-03-13T22:21:52.590Z,27.00
2019-03-13T22:24:23.322Z,26.77
2019-03-13T22:26:53.599Z,27.83
2019-03-13T22:29:23.904Z,28.53
2019-03-13T22:31:54.248Z,26.67
2019-03-13T22:34:24.543Z,26.73
2019-03-13T22:36:54.836Z,26.77
2019-03-13T22:39:25.102Z,28.03
2019-03-13T22:41:55.381Z,27.00
2019-03-13T22:44:25.981Z,27.27
2019-03-13T22:46:56.526Z,27.57
2019-03-13T22:49:26.810Z,27.27
2019-03-13T22:51:58.227Z,26.70
2019-03-13T22:54:28.576Z,27.57
2019-03-13T22:56:59.006Z,26.30
2019-03-13T22:59:29.268Z,25.73
2019-03-13T23:02:00.042Z,25.50
2019-03-13T23:04:30.575Z,25.00
2019-03-13T23:07:01.117Z,25.57
2019-03-13T23:09:31.473Z,25.00
2019-03-13T23:12:01.859Z,25.83
2019-03-13T23:14:32.118Z,26.60
2019-03-13T23:17:02.762Z,25.40
2019-03-13T23:19:33.079Z,25.57
2019-03-13T23:22:03.669Z,25.00
2019-03-13T23:24:33.931Z,25.83
2019-03-13T23:27:05.561Z,24.60
2019-03-13T23:29:35.911Z,25.47
2019-03-13T23:32:06.350Z,25.17
2019-03-13T23:34:36.660Z,25.43
2019-03-13T23:37:07.061Z,25.17
2019-03-13T23:39:37.324Z,25.00
2019-03-13T23:42:07.607Z,24.80
2019-03-13T23:44:37.939Z,24.17
2019-03-13T23:47:08.262Z,24.27
2019-03-13T23:49:38.508Z,24.40
2019-03-13T23:52:09.013Z,24.67
2019-03-13T23:54:39.293Z,24.50
2019-03-13T23:57:09.752Z,23.27
2019-03-13T23:59:40.046Z,23.83
